IN-0052 weather

Public forecast

Using degrees Celsius for public forecast. Weather courtesy of forecast.io.

Closest aviation weather report (METAR) to Mathura Heliport

Closest report is Agra Airport, 23.7 nm (44.0 km) SE. Retrieved 2020/08/10 15:30 UTC (13 minutes ago):

VIAG 101530Z 00000KT 6000 SCT020 BKN090 28/28 Q0999 NOSIG

Closest aviation forecast (TAF) to Mathura Heliport

Closest forecast is Agra Airport, 23.7 nm (44.0 km) SE. Retrieved 2020/08/10 12:30 UTC (3 hours ago):

TAF VIAG 100930Z 1012/1024 30008KT 5000 BR SCT010 BKN100 TEMPO 1012/1014 3000 TS RA SCT008 BKN100 FEW030TCU/CB